Time;durP1;ratioP1;P1;durP2;ratioP2;P2;SDS_P1;SDS_P2;PMS_P1;PMS_P2;Temp;Humidity;BMP_temperature;BMP_pressure;BME280_temperature;BME280_humidity;BME280_pressure;Samples;Min_cycle;Max_cycle;Signal;HPM_P1;HPM_P2
2023/06/23 00:01:20;;;;;;;16.03;14.30;;;26.30;99.90;;;;;;4780672;29;20471;-82
2023/06/23 00:03:46;;;;;;;15.50;13.97;;;26.30;99.90;;;;;;4782695;30;20502;-81
2023/06/23 00:06:13;;;;;;;16.77;14.30;;;26.30;99.90;;;;;;4780976;30;20471;-82
2023/06/23 00:08:39;;;;;;;14.57;13.07;;;26.20;99.90;;;;;;4781307;30;20570;-81
2023/06/23 00:11:06;;;;;;;15.13;13.60;;;26.20;99.90;;;;;;4782129;30;20479;-82
2023/06/23 00:13:34;;;;;;;15.23;13.67;;;26.20;99.90;;;;;;4782353;30;20186;-81
2023/06/23 00:16:01;;;;;;;16.20;13.40;;;26.20;99.90;;;;;;4781131;29;20467;-81
2023/06/23 00:18:27;;;;;;;15.50;13.83;;;26.10;99.90;;;;;;4780828;29;20991;-82
2023/06/23 00:20:54;;;;;;;15.20;13.50;;;26.00;99.90;;;;;;4782071;29;21565;-82
2023/06/23 00:23:20;;;;;;;16.67;13.63;;;26.00;99.90;;;;;;4780863;30;20500;-82
2023/06/23 00:25:46;;;;;;;17.60;14.10;;;26.00;99.90;;;;;;4782259;30;20439;-81
2023/06/23 00:28:12;;;;;;;16.20;14.50;;;26.00;99.90;;;;;;4783283;29;20426;-81
2023/06/23 00:30:37;;;;;;;16.53;14.40;;;26.00;99.90;;;;;;4785728;29;20281;-82
2023/06/23 00:33:03;;;;;;;16.17;14.57;;;25.90;99.90;;;;;;4784377;29;20678;-81
2023/06/23 00:35:29;;;;;;;16.97;13.90;;;25.90;99.90;;;;;;4785190;29;20211;-81
2023/06/23 00:37:54;;;;;;;15.73;14.23;;;25.90;99.90;;;;;;4785779;30;20582;-81
2023/06/23 00:40:22;;;;;;;16.13;14.53;;;25.80;99.90;;;;;;4784573;30;20222;-82
2023/06/23 00:42:55;;;;;;;15.40;13.90;;;25.80;99.90;;;;;;4784318;29;20333;-82
2023/06/23 00:45:22;;;;;;;15.87;14.17;;;25.80;99.90;;;;;;4786035;30;20945;-82
2023/06/23 00:47:49;;;;;;;16.17;14.00;;;25.70;99.90;;;;;;4784472;29;20449;-82
2023/06/23 00:50:18;;;;;;;16.73;14.67;;;25.70;99.90;;;;;;4785982;29;20520;-81
2023/06/23 00:52:52;;;;;;;22.23;15.63;;;25.70;99.90;;;;;;4785739;30;20426;-82
2023/06/23 00:55:21;;;;;;;16.50;14.80;;;25.70;99.90;;;;;;4785710;30;20519;-82
2023/06/23 00:57:51;;;;;;;15.07;13.60;;;25.60;99.90;;;;;;4784077;30;20665;-81
2023/06/23 01:00:18;;;;;;;17.63;15.30;;;25.60;99.90;;;;;;4785463;30;20765;-81
2023/06/23 01:02:51;;;;;;;17.00;13.87;;;25.60;99.90;;;;;;4785291;29;20980;-81
2023/06/23 01:05:20;;;;;;;15.90;14.20;;;25.60;99.90;;;;;;4784190;30;20572;-81
2023/06/23 01:07:52;;;;;;;17.90;15.07;;;25.50;99.90;;;;;;4785596;30;20423;-82
2023/06/23 01:10:35;;;;;;;19.40;15.83;;;25.50;99.90;;;;;;4784134;29;20937;-81
2023/06/23 01:13:13;;;;;;;17.43;15.00;;;25.50;99.90;;;;;;4785015;30;20513;-81
2023/06/23 01:15:46;;;;;;;17.63;15.80;;;25.40;99.90;;;;;;4785500;30;20982;-81
2023/06/23 01:18:36;;;;;;;15.70;13.87;;;25.40;99.90;;;;;;4784921;30;20843;-81
2023/06/23 01:21:07;;;;;;;18.43;15.20;;;25.30;99.90;;;;;;4784578;30;20466;-81
2023/06/23 01:23:43;;;;;;;18.40;16.50;;;25.20;99.90;;;;;;4784947;30;20415;-81
2023/06/23 01:26:15;;;;;;;21.13;17.37;;;25.20;99.90;;;;;;4784972;30;20849;-81
2023/06/23 01:28:44;;;;;;;16.57;14.87;;;25.20;99.90;;;;;;4785245;30;20432;-81
2023/06/23 01:31:13;;;;;;;17.53;14.47;;;25.10;99.90;;;;;;4784884;29;20447;-81
2023/06/23 01:33:48;;;;;;;17.10;15.20;;;25.10;99.90;;;;;;4783621;29;20443;-81
2023/06/23 01:36:20;;;;;;;19.67;15.70;;;25.10;99.90;;;;;;4784618;30;20527;-81
2023/06/23 01:38:52;;;;;;;21.97;15.10;;;25.00;99.90;;;;;;4784220;29;20760;-81
2023/06/23 01:41:21;;;;;;;20.37;14.80;;;25.00;99.90;;;;;;4784293;30;20859;-81
2023/06/23 01:43:49;;;;;;;19.43;15.37;;;25.00;99.90;;;;;;4783532;30;20522;-81
2023/06/23 01:46:25;;;;;;;16.07;14.43;;;25.00;99.90;;;;;;4784344;30;20538;-81
2023/06/23 01:48:54;;;;;;;18.27;16.37;;;24.90;99.90;;;;;;4784829;30;20887;-81
2023/06/23 01:51:20;;;;;;;16.70;15.10;;;24.90;99.90;;;;;;4783135;30;20459;-81
2023/06/23 01:53:48;;;;;;;17.07;14.87;;;24.90;99.90;;;;;;4783390;30;20522;-80
2023/06/23 01:56:15;;;;;;;16.47;14.70;;;24.90;99.90;;;;;;4784477;29;20447;-81
2023/06/23 01:58:41;;;;;;;17.43;14.00;;;24.90;99.90;;;;;;4784994;29;20432;-81
2023/06/23 02:01:08;;;;;;;17.63;15.37;;;24.90;99.90;;;;;;4782836;29;20817;-81
2023/06/23 02:03:34;;;;;;;16.70;14.77;;;24.90;99.90;;;;;;4782905;30;20446;-81
2023/06/23 02:06:01;;;;;;;17.50;15.73;;;24.90;99.90;;;;;;4784771;30;20449;-81
2023/06/23 02:08:29;;;;;;;23.10;16.87;;;24.90;99.90;;;;;;4784067;30;20424;-81
2023/06/23 02:10:56;;;;;;;20.17;16.47;;;24.90;99.90;;;;;;4783142;29;20458;-81
2023/06/23 02:13:26;;;;;;;19.80;16.00;;;24.90;99.90;;;;;;4782718;30;21067;-81
2023/06/23 02:15:53;;;;;;;19.37;16.40;;;24.80;99.90;;;;;;4784424;30;20444;-81
2023/06/23 02:18:20;;;;;;;17.10;14.70;;;24.80;99.90;;;;;;4782551;29;20436;-81
2023/06/23 02:20:47;;;;;;;16.10;14.50;;;24.70;99.90;;;;;;4783816;30;21037;-81
2023/06/23 02:23:15;;;;;;;18.57;16.77;;;24.70;99.90;;;;;;4782157;30;20519;-81
2023/06/23 02:25:41;;;;;;;23.00;16.63;;;24.60;99.90;;;;;;4783846;30;20526;-81
2023/06/23 02:28:08;;;;;;;18.70;16.70;;;24.60;99.90;;;;;;4782388;30;20447;-81
2023/06/23 02:30:34;;;;;;;17.80;16.00;;;24.60;99.90;;;;;;4782591;30;20547;-81
2023/06/23 02:33:00;;;;;;;18.80;15.43;;;24.60;99.90;;;;;;4782472;30;20538;-81
2023/06/23 02:35:27;;;;;;;18.00;15.37;;;24.60;99.90;;;;;;4782743;30;20451;-81
2023/06/23 02:37:58;;;;;;;16.70;14.33;;;24.60;99.90;;;;;;4783508;30;20514;-81
2023/06/23 02:40:26;;;;;;;19.57;14.93;;;24.70;99.90;;;;;;4783735;30;20515;-80
2023/06/23 02:43:13;;;;;;;16.37;14.67;;;24.70;99.90;;;;;;4782857;30;20862;-80
2023/06/23 02:45:42;;;;;;;19.47;16.33;;;24.70;99.90;;;;;;4782206;30;20492;-80
2023/06/23 02:48:15;;;;;;;19.43;16.17;;;24.70;99.90;;;;;;4783399;30;20497;-80
2023/06/23 02:50:43;;;;;;;21.43;16.27;;;24.70;99.90;;;;;;4783053;29;20469;-80
2023/06/23 02:53:13;;;;;;;19.00;15.57;;;24.70;99.90;;;;;;4781937;29;20790;-80
2023/06/23 02:55:44;;;;;;;15.83;14.13;;;24.60;99.90;;;;;;4783730;30;20457;-80
2023/06/23 02:58:13;;;;;;;16.90;15.20;;;24.60;99.90;;;;;;4781715;30;20447;-80
2023/06/23 03:00:39;;;;;;;20.27;15.80;;;24.60;99.90;;;;;;4782042;30;21128;-80
2023/06/23 03:03:15;;;;;;;18.10;15.63;;;24.60;99.90;;;;;;4783041;29;20550;-80
2023/06/23 03:05:41;;;;;;;18.57;14.80;;;24.60;99.90;;;;;;4781971;30;20763;-81
2023/06/23 03:08:07;;;;;;;17.70;14.73;;;24.70;99.90;;;;;;4782888;30;20503;-80
2023/06/23 03:10:33;;;;;;;22.03;17.10;;;24.70;99.90;;;;;;4782032;30;20522;-80
2023/06/23 03:13:00;;;;;;;18.17;16.27;;;24.70;99.90;;;;;;4782710;30;20576;-80
2023/06/23 03:15:27;;;;;;;17.40;14.80;;;24.60;99.90;;;;;;4783178;30;20927;-80
2023/06/23 03:17:58;;;;;;;18.23;15.50;;;24.60;99.90;;;;;;4783343;30;20897;-80
2023/06/23 03:20:37;;;;;;;21.87;15.93;;;24.60;99.90;;;;;;4783158;30;20993;-80
2023/06/23 03:23:11;;;;;;;20.80;15.37;;;24.60;99.90;;;;;;4782259;30;20491;-80
2023/06/23 03:25:40;;;;;;;17.77;14.80;;;24.60;99.90;;;;;;4783090;30;20471;-80
2023/06/23 03:28:09;;;;;;;18.83;15.63;;;24.60;99.90;;;;;;4782865;30;20426;-80
2023/06/23 03:31:06;;;;;;;21.93;15.60;;;24.50;99.90;;;;;;4783226;30;20467;-80
2023/06/23 03:33:35;;;;;;;16.70;14.80;;;24.60;99.90;;;;;;4782312;30;20443;-80
2023/06/23 03:36:13;;;;;;;21.20;15.80;;;24.60;99.90;;;;;;4781737;29;20890;-80
2023/06/23 03:38:46;;;;;;;18.63;15.47;;;24.60;99.90;;;;;;4782475;30;20458;-80
2023/06/23 03:41:13;;;;;;;31.80;19.07;;;24.60;99.90;;;;;;4782478;30;20792;-80
2023/06/23 03:43:50;;;;;;;20.23;17.43;;;24.60;99.90;;;;;;4781488;30;20867;-80
2023/06/23 03:46:21;;;;;;;18.07;16.03;;;24.50;99.90;;;;;;4782386;30;20488;-80
2023/06/23 03:48:49;;;;;;;19.27;17.30;;;24.50;99.90;;;;;;4781371;30;20531;-80
2023/06/23 03:51:18;;;;;;;19.70;16.23;;;24.50;99.90;;;;;;4781543;30;20807;-80
2023/06/23 03:53:45;;;;;;;18.00;16.10;;;24.50;99.90;;;;;;4781267;30;20576;-80
2023/06/23 03:56:15;;;;;;;20.13;18.03;;;24.50;99.90;;;;;;4782900;30;20526;-80
2023/06/23 03:58:43;;;;;;;21.73;16.07;;;24.60;99.90;;;;;;4788459;29;20774;-80
2023/06/23 04:01:10;;;;;;;21.73;17.57;;;24.60;99.90;;;;;;4800198;29;20545;-80
2023/06/23 04:03:38;;;;;;;19.37;17.20;;;24.60;99.90;;;;;;4783864;29;20418;-80
2023/06/23 04:06:07;;;;;;;20.20;16.77;;;24.60;99.90;;;;;;4800779;29;20458;-80
2023/06/23 04:08:35;;;;;;;18.47;16.33;;;24.60;99.90;;;;;;4784046;29;20506;-80
2023/06/23 04:11:03;;;;;;;19.70;16.53;;;24.60;99.90;;;;;;4800456;29;20444;-80
2023/06/23 04:13:31;;;;;;;19.07;17.03;;;24.60;99.90;;;;;;4784050;29;20457;-80
2023/06/23 04:15:59;;;;;;;22.63;17.67;;;24.60;99.90;;;;;;4784090;29;20455;-80
2023/06/23 04:18:27;;;;;;;19.90;17.60;;;24.70;99.90;;;;;;4799725;29;20787;-81
2023/06/23 04:20:55;;;;;;;20.10;16.30;;;24.80;99.90;;;;;;4783968;29;20845;-80
2023/06/23 04:23:22;;;;;;;19.10;16.30;;;24.90;99.90;;;;;;4799332;29;20417;-80
2023/06/23 04:25:50;;;;;;;20.83;17.63;;;24.90;99.90;;;;;;4790222;29;20533;-80
2023/06/23 04:28:18;;;;;;;20.40;18.13;;;24.90;99.90;;;;;;4780934;30;20431;-80
2023/06/23 04:30:46;;;;;;;21.73;17.80;;;24.90;99.90;;;;;;4782106;29;20476;-80
2023/06/23 04:33:11;;;;;;;20.63;17.70;;;25.00;99.90;;;;;;4779612;29;20488;-80
2023/06/23 04:35:37;;;;;;;19.03;16.70;;;24.90;99.90;;;;;;4780976;30;20455;-80
2023/06/23 04:38:08;;;;;;;25.00;18.30;;;24.90;99.90;;;;;;4777084;30;20454;-80
2023/06/23 04:40:45;;;;;;;20.17;16.73;;;24.90;99.90;;;;;;4766063;30;20275;-80
2023/06/23 04:43:26;;;;;;;21.67;17.23;;;24.90;99.90;;;;;;4777290;30;20444;-80
2023/06/23 04:46:11;;;;;;;19.63;17.53;;;24.90;99.90;;;;;;4777036;30;20993;-80
2023/06/23 04:48:42;;;;;;;19.40;17.27;;;25.00;99.90;;;;;;4765689;30;20470;-79
2023/06/23 04:51:09;;;;;;;20.90;18.63;;;25.00;99.90;;;;;;4779534;30;20451;-80
2023/06/23 04:53:42;;;;;;;20.17;17.53;;;25.00;99.90;;;;;;4765113;29;20979;-80
2023/06/23 04:56:15;;;;;;;21.60;17.67;;;25.00;99.90;;;;;;4794695;29;20951;-80
2023/06/23 04:58:43;;;;;;;24.67;18.47;;;25.10;99.90;;;;;;4799612;29;20834;-80
2023/06/23 05:01:12;;;;;;;24.63;18.50;;;25.10;99.90;;;;;;4783422;29;21103;-80
2023/06/23 05:03:39;;;;;;;19.70;17.70;;;25.10;99.90;;;;;;4799908;29;20890;-80
2023/06/23 05:06:06;;;;;;;21.17;17.80;;;25.20;99.90;;;;;;4799609;29;20792;-80
2023/06/23 05:08:34;;;;;;;20.27;17.93;;;25.20;99.90;;;;;;4765820;29;20518;-80
2023/06/23 05:11:05;;;;;;;20.13;18.03;;;25.30;99.90;;;;;;4771951;30;20515;-80
2023/06/23 05:13:32;;;;;;;18.07;16.17;;;25.40;99.90;;;;;;4763882;30;20412;-80
2023/06/23 05:16:00;;;;;;;20.43;18.33;;;25.40;99.90;;;;;;4779566;29;21009;-80
2023/06/23 05:18:28;;;;;;;22.97;19.67;;;25.50;99.90;;;;;;4765168;30;20425;-80
2023/06/23 05:20:58;;;;;;;22.33;18.13;;;25.50;99.90;;;;;;4770604;30;20506;-80
2023/06/23 05:23:26;;;;;;;21.37;18.23;;;25.60;99.90;;;;;;4765940;30;20427;-80
2023/06/23 05:25:56;;;;;;;21.37;17.40;;;25.70;99.90;;;;;;4775299;30;20962;-80
2023/06/23 05:28:24;;;;;;;21.13;18.87;;;25.80;99.90;;;;;;4771931;30;20968;-80
2023/06/23 05:30:51;;;;;;;21.10;18.60;;;25.80;99.90;;;;;;4770767;29;20981;-80
2023/06/23 05:33:18;;;;;;;19.90;17.83;;;25.80;99.90;;;;;;4783088;29;20434;-80
2023/06/23 05:35:45;;;;;;;19.50;17.20;;;25.90;99.90;;;;;;4783865;29;20454;-80
2023/06/23 05:38:12;;;;;;;22.30;17.87;;;26.00;99.90;;;;;;4783970;29;20526;-80
2023/06/23 05:40:39;;;;;;;19.77;17.67;;;26.10;99.90;;;;;;4795849;29;20865;-80
2023/06/23 05:43:05;;;;;;;19.53;17.00;;;26.20;99.90;;;;;;4794737;29;20446;-80
2023/06/23 05:45:30;;;;;;;21.37;17.60;;;26.20;99.90;;;;;;4773708;29;20468;-80
2023/06/23 05:48:15;;;;;;;21.50;18.03;;;26.30;99.90;;;;;;4762986;30;20638;-80
2023/06/23 05:50:42;;;;;;;22.83;18.13;;;26.40;99.90;;;;;;4774095;29;20290;-80
2023/06/23 05:53:12;;;;;;;21.23;18.20;;;26.40;99.90;;;;;;4767241;29;20590;-80
2023/06/23 05:55:46;;;;;;;23.63;19.20;;;26.50;99.90;;;;;;4764965;30;20455;-80
2023/06/23 05:58:13;;;;;;;20.23;17.30;;;26.60;99.90;;;;;;4772186;29;20439;-80
2023/06/23 06:00:45;;;;;;;18.43;16.53;;;26.70;99.90;;;;;;4775086;29;20882;-80
2023/06/23 06:03:14;;;;;;;20.93;17.67;;;26.80;99.90;;;;;;4780019;30;20478;-80
2023/06/23 06:05:45;;;;;;;19.50;17.47;;;26.90;99.90;;;;;;4777710;29;20459;-80
2023/06/23 06:08:12;;;;;;;21.37;16.90;;;27.00;99.90;;;;;;4777374;29;20495;-80
2023/06/23 06:10:38;;;;;;;20.27;18.10;;;27.20;99.90;;;;;;4783648;29;20826;-80
2023/06/23 06:13:05;;;;;;;19.77;17.67;;;27.20;99.90;;;;;;4771207;29;20724;-79
2023/06/23 06:15:32;;;;;;;20.33;18.23;;;27.30;99.90;;;;;;4774268;29;20889;-80
2023/06/23 06:18:02;;;;;;;22.67;17.70;;;27.40;99.90;;;;;;4764493;30;20442;-80
2023/06/23 06:20:30;;;;;;;21.07;17.43;;;27.50;99.90;;;;;;4777331;29;20496;-80
2023/06/23 06:22:57;;;;;;;20.03;17.10;;;27.50;99.90;;;;;;4765085;29;20773;-80
2023/06/23 06:25:25;;;;;;;24.40;18.40;;;27.60;99.90;;;;;;4773095;29;20575;-80
2023/06/23 06:27:53;;;;;;;25.93;19.07;;;27.70;99.90;;;;;;4776503;29;21275;-80
2023/06/23 06:30:21;;;;;;;20.93;18.73;;;27.70;99.90;;;;;;4775558;29;20504;-81
2023/06/23 06:32:49;;;;;;;19.30;17.10;;;27.80;99.90;;;;;;4777837;29;20443;-79
2023/06/23 06:35:16;;;;;;;17.97;16.27;;;27.80;99.90;;;;;;4782031;29;20431;-82
2023/06/23 06:37:47;;;;;;;18.60;16.90;;;27.90;99.90;;;;;;4759627;30;20440;-82
2023/06/23 06:40:19;;;;;;;24.23;17.90;;;28.00;99.90;;;;;;4756281;30;20500;-82
2023/06/23 06:42:44;;;;;;;21.20;17.53;;;28.10;99.90;;;;;;4767914;29;20446;-81
2023/06/23 06:45:10;;;;;;;19.00;17.20;;;28.10;99.90;;;;;;4773710;29;20484;-81
2023/06/23 06:47:43;;;;;;;20.47;18.37;;;28.10;99.90;;;;;;4771288;29;21083;-78
2023/06/23 06:50:10;;;;;;;19.60;17.53;;;28.20;99.90;;;;;;4769098;29;20228;-79
2023/06/23 06:52:38;;;;;;;20.13;17.73;;;28.30;99.90;;;;;;4762554;29;20451;-90
2023/06/23 06:55:04;;;;;;;19.97;18.10;;;28.40;99.90;;;;;;4765394;29;20769;-76
2023/06/23 06:57:35;;;;;;;21.50;19.37;;;28.40;99.90;;;;;;4779786;29;20471;-75
2023/06/23 07:00:01;;;;;;;21.10;18.73;;;;;;;;;;4772420;29;20489;-77
2023/06/23 07:02:28;;;;;;;18.10;16.30;;;;;;;;;;4760049;30;20494;-88
2023/06/23 07:04:54;;;;;;;20.23;18.23;;;;;;;;;;4777388;29;20470;-77
2023/06/23 07:07:21;;;;;;;19.67;17.77;;;;;;;;;;4764631;30;20465;-78
2023/06/23 07:09:47;;;;;;;19.23;17.23;;;;;;;;;;4762174;29;20420;-88
2023/06/23 07:12:13;;;;;;;19.60;17.70;;;;;;;;;;4765834;29;20501;-88
2023/06/23 07:14:39;;;;;;;20.13;18.17;;;;;;;;;;4763435;30;20419;-78
2023/06/23 07:17:05;;;;;;;19.43;16.80;;;;;;;;;;4768253;30;20841;-88
2023/06/23 07:19:31;;;;;;;22.97;18.33;;;;;;;;;;4773700;29;20495;-78
2023/06/23 07:21:57;;;;;;;19.63;17.63;;;;;;;;;;4794412;29;20469;-78
2023/06/23 07:24:24;;;;;;;18.23;16.43;;;;;;;;;;4797273;29;20962;-78
2023/06/23 07:26:50;;;;;;;18.30;16.50;;;;;;;;;;4761436;30;20866;-85
2023/06/23 07:29:16;;;;;;;19.57;17.47;;;;;;;;;;4771627;29;20462;-85
2023/06/23 07:31:42;;;;;;;21.40;19.30;;;;;;;;;;4778022;29;20458;-85
2023/06/23 07:34:08;;;;;;;18.30;16.60;;;;;;;;;;4770988;30;20818;-84
2023/06/23 07:36:34;;;;;;;18.80;16.90;;;;;;;;;;4765689;29;21034;-84
2023/06/23 07:39:00;;;;;;;20.00;17.10;;;;;;;;;;4758964;29;20751;-78
2023/06/23 07:41:26;;;;;;;18.30;16.60;;;;;;;;;;4764142;29;20471;-86
2023/06/23 07:43:52;;;;;;;19.47;17.40;;;;;;;;;;4775393;29;20820;-86
2023/06/23 07:46:19;;;;;;;20.00;17.03;;;;;;;;;;4759290;30;20516;-78
2023/06/23 07:48:45;;;;;;;18.13;16.00;;;;;;;;;;4760384;30;20442;-79
2023/06/23 07:51:11;;;;;;;18.67;16.83;;;;;;;;;;4771575;29;20474;-78
2023/06/23 07:53:37;;;;;;;21.03;17.67;;;;;;;;;;4771088;29;20932;-78
2023/06/23 07:56:02;;;;;;;20.87;17.60;;;30.40;99.90;;;;;;4757040;29;20457;-86
2023/06/23 07:58:28;;;;;;;19.30;16.83;;;30.40;99.90;;;;;;4767687;30;20454;-78
2023/06/23 08:00:54;;;;;;;19.40;17.50;;;30.50;99.90;;;;;;4767884;29;20234;-86
2023/06/23 08:03:19;;;;;;;19.10;17.20;;;30.60;99.90;;;;;;4770038;29;20270;-78
2023/06/23 08:05:45;;;;;;;20.40;17.33;;;30.60;99.90;;;;;;4763639;29;20515;-78
2023/06/23 08:08:11;;;;;;;17.80;16.17;;;30.70;99.90;;;;;;4768155;29;20196;-78
2023/06/23 08:10:37;;;;;;;19.70;17.57;;;30.80;99.90;;;;;;4754290;30;20459;-78
2023/06/23 08:13:02;;;;;;;18.13;16.30;;;31.00;99.90;;;;;;4761581;29;20196;-84
2023/06/23 08:15:28;;;;;;;22.50;17.17;;;31.00;99.90;;;;;;4765284;29;20303;-85
2023/06/23 08:17:54;;;;;;;18.33;16.53;;;31.20;99.90;;;;;;4781544;29;20206;-83
2023/06/23 08:20:20;;;;;;;17.97;15.60;;;31.30;99.90;;;;;;4768473;30;20249;-84
2023/06/23 08:22:46;;;;;;;18.60;16.80;;;31.30;99.90;;;;;;4770880;29;20438;-78
2023/06/23 08:25:12;;;;;;;17.90;15.90;;;31.30;99.90;;;;;;4762563;29;20435;-84
2023/06/23 08:27:38;;;;;;;18.23;16.53;;;31.40;99.90;;;;;;4768754;29;20527;-77
2023/06/23 08:30:05;;;;;;;17.73;16.00;;;31.50;99.90;;;;;;4772782;29;20214;-77
2023/06/23 08:32:31;;;;;;;26.77;15.53;;;31.60;99.90;;;;;;4776406;29;20222;-83
2023/06/23 08:34:56;;;;;;;18.37;16.57;;;31.70;99.90;;;;;;4788035;29;20427;-85
2023/06/23 08:37:22;;;;;;;19.63;16.20;;;31.80;99.90;;;;;;4770996;29;20458;-84
2023/06/23 08:39:48;;;;;;;17.70;15.87;;;31.80;99.90;;;;;;4780722;29;20229;-84
2023/06/23 08:42:14;;;;;;;18.70;16.80;;;32.00;99.90;;;;;;4767159;29;20216;-78
2023/06/23 08:44:43;;;;;;;19.77;17.87;;;32.10;99.90;;;;;;4759173;30;20199;-84
2023/06/23 08:47:14;;;;;;;19.57;17.57;;;32.20;99.90;;;;;;4771726;29;21104;-85
2023/06/23 08:49:43;;;;;;;17.77;15.93;;;32.20;99.90;;;;;;4787190;29;20611;-85
2023/06/23 08:52:11;;;;;;;17.93;16.07;;;32.30;99.90;;;;;;4776520;29;20808;-85
2023/06/23 08:54:37;;;;;;;18.57;16.67;;;32.40;99.90;;;;;;4784460;29;20480;-79
2023/06/23 08:57:04;;;;;;;17.97;16.07;;;32.50;99.90;;;;;;4781091;29;20996;-78
2023/06/23 08:59:30;;;;;;;17.77;16.03;;;32.60;99.90;;;;;;4779361;29;20544;-78
2023/06/23 09:01:56;;;;;;;22.60;15.73;;;32.60;99.90;;;;;;4781040;29;20745;-79
2023/06/23 09:04:22;;;;;;;19.80;18.00;;;32.80;99.90;;;;;;4774304;29;20450;-78
2023/06/23 09:06:48;;;;;;;19.90;18.00;;;32.80;99.90;;;;;;4765124;30;20344;-78
2023/06/23 09:09:14;;;;;;;20.20;18.17;;;32.90;99.90;;;;;;4778971;29;21016;-86
2023/06/23 09:11:42;;;;;;;20.03;18.13;;;32.90;99.90;;;;;;4773775;29;20694;-85
2023/06/23 09:14:10;;;;;;;21.03;19.03;;;32.90;99.90;;;;;;4773424;29;20435;-78
2023/06/23 09:16:37;;;;;;;20.87;18.97;;;33.00;99.90;;;;;;4758470;30;20863;-78
2023/06/23 09:19:06;;;;;;;19.60;17.70;;;33.00;99.90;;;;;;4764955;29;20544;-84
2023/06/23 09:21:34;;;;;;;19.03;17.00;;;33.00;99.90;;;;;;4777253;29;20845;-84
2023/06/23 09:24:05;;;;;;;24.33;17.17;;;33.10;99.90;;;;;;4769734;30;20458;-85
2023/06/23 09:26:45;;;;;;;18.60;16.87;;;33.30;99.90;;;;;;4772180;30;20784;-84
2023/06/23 09:29:22;;;;;;;20.13;17.50;;;33.40;99.90;;;;;;4779918;30;20814;-84
2023/06/23 09:31:49;;;;;;;20.70;18.50;;;33.60;99.90;;;;;;4764808;30;20469;-79
2023/06/23 09:34:23;;;;;;;19.57;17.77;;;33.60;99.90;;;;;;4780259;29;20462;-79
2023/06/23 09:36:49;;;;;;;19.73;17.93;;;33.70;99.90;;;;;;4771908;29;20467;-79
2023/06/23 09:39:15;;;;;;;19.30;17.57;;;33.70;99.90;;;;;;4778161;29;20483;-79
2023/06/23 09:41:47;;;;;;;20.43;18.33;;;33.80;99.90;;;;;;4780846;29;20467;-78
2023/06/23 09:44:13;;;;;;;23.43;17.50;;;33.80;99.90;;;;;;4784508;29;20955;-85
2023/06/23 09:46:41;;;;;;;20.63;18.00;;;33.90;99.90;;;;;;4781413;29;20455;-84
2023/06/23 09:49:07;;;;;;;21.80;16.70;;;34.00;99.90;;;;;;4781702;30;20903;-79
2023/06/23 09:51:37;;;;;;;19.50;17.27;;;34.10;99.90;;;;;;4767982;29;20524;-84
2023/06/23 09:54:03;;;;;;;18.57;16.67;;;34.20;99.90;;;;;;4763091;30;21048;-78
2023/06/23 09:56:29;;;;;;;18.23;16.20;;;34.20;99.90;;;;;;4786434;29;20462;-79
2023/06/23 09:58:55;;;;;;;17.40;15.77;;;34.20;99.90;;;;;;4783792;29;20542;-78
2023/06/23 10:01:20;;;;;;;24.83;17.67;;;34.20;99.90;;;;;;4783284;29;20459;-78
2023/06/23 10:03:47;;;;;;;19.50;17.50;;;34.30;99.90;;;;;;4775682;29;20186;-79
2023/06/23 10:06:22;;;;;;;19.17;17.53;;;34.30;99.90;;;;;;4789552;29;20226;-84
2023/06/23 10:08:47;;;;;;;21.33;16.53;;;34.30;99.90;;;;;;4768876;29;20462;-81
2023/06/23 10:11:17;;;;;;;18.03;16.20;;;34.30;99.90;;;;;;4785923;29;20486;-84
2023/06/23 10:13:44;;;;;;;19.30;17.30;;;34.20;99.90;;;;;;4781102;29;20397;-78
2023/06/23 10:16:10;;;;;;;19.60;17.50;;;34.30;99.90;;;;;;4793190;29;20519;-84
2023/06/23 10:18:36;;;;;;;17.90;16.20;;;34.40;99.90;;;;;;4781292;29;20718;-79
2023/06/23 10:21:02;;;;;;;20.63;18.53;;;34.50;99.90;;;;;;4761360;30;20856;-84
2023/06/23 10:23:29;;;;;;;19.90;18.03;;;34.40;99.90;;;;;;4791105;29;20429;-79
2023/06/23 10:25:57;;;;;;;18.80;16.60;;;34.40;99.90;;;;;;4797954;29;20561;-79
2023/06/23 10:28:25;;;;;;;18.47;16.30;;;34.50;99.90;;;;;;4780172;29;20454;-79
2023/06/23 10:30:51;;;;;;;18.77;17.07;;;34.50;99.90;;;;;;4778491;29;20918;-85
2023/06/23 10:33:19;;;;;;;20.23;18.10;;;34.60;99.90;;;;;;4781862;29;21061;-83
2023/06/23 10:35:48;;;;;;;17.47;16.07;;;34.60;99.90;;;;;;4780848;29;20455;-79
2023/06/23 10:38:26;;;;;;;17.50;15.63;;;34.70;99.90;;;;;;4791820;29;20439;-79
2023/06/23 10:40:54;;;;;;;17.90;16.30;;;34.70;99.90;;;;;;4792503;29;20508;-79
2023/06/23 10:43:21;;;;;;;17.77;15.80;;;34.80;99.90;;;;;;4785128;29;20436;-79
2023/06/23 10:45:48;;;;;;;18.30;16.47;;;34.80;99.90;;;;;;4767665;29;20463;-84
2023/06/23 10:48:15;;;;;;;16.97;15.23;;;34.80;99.90;;;;;;4783859;29;20851;-83
2023/06/23 10:50:41;;;;;;;25.13;15.70;;;34.90;99.90;;;;;;4790705;29;20452;-79
2023/06/23 10:53:24;;;;;;;18.67;16.63;;;34.90;99.90;;;;;;4774809;29;20446;-79
2023/06/23 10:55:58;;;;;;;18.80;16.77;;;35.00;99.90;;;;;;4755538;30;20459;-84
2023/06/23 10:58:25;;;;;;;20.20;16.33;;;35.00;99.90;;;;;;4784087;29;20466;-85
2023/06/23 11:00:53;;;;;;;20.00;16.33;;;35.00;99.90;;;;;;4762473;30;21131;-79
2023/06/23 11:03:31;;;;;;;19.10;17.20;;;35.10;99.90;;;;;;4780336;29;21012;-79
2023/06/23 11:05:59;;;;;;;18.93;16.00;;;35.20;99.70;;;;;;4778224;29;20641;-78
2023/06/23 11:08:37;;;;;;;16.17;14.57;;;35.20;99.60;;;;;;4782025;29;20523;-79
2023/06/23 11:11:07;;;;;;;17.30;15.80;;;35.20;99.10;;;;;;4760068;29;20504;-79
2023/06/23 11:13:44;;;;;;;17.97;16.13;;;35.20;99.20;;;;;;4777981;29;20745;-79
2023/06/23 11:16:15;;;;;;;15.03;13.30;;;35.30;99.70;;;;;;4753890;30;20472;-83
2023/06/23 11:18:57;;;;;;;16.53;15.00;;;35.30;99.00;;;;;;4763896;29;20752;-83
2023/06/23 11:21:28;;;;;;;16.37;14.77;;;35.20;98.90;;;;;;4757073;30;20476;-85
2023/06/23 11:24:14;;;;;;;16.00;14.37;;;35.30;98.60;;;;;;4773684;29;20437;-78
2023/06/23 11:27:03;;;;;;;17.03;13.70;;;35.40;99.00;;;;;;4783564;29;20589;-78
2023/06/23 11:29:30;;;;;;;15.57;13.93;;;35.50;97.90;;;;;;4764762;29;20528;-79
2023/06/23 11:32:06;;;;;;;20.57;14.97;;;35.50;97.70;;;;;;4777789;30;20467;-84
2023/06/23 11:34:52;;;;;;;16.27;14.67;;;35.60;97.50;;;;;;4772687;29;21309;-83
2023/06/23 11:37:18;;;;;;;25.60;15.43;;;35.70;97.30;;;;;;4775471;30;20550;-84
2023/06/23 11:39:44;;;;;;;14.33;13.03;;;35.70;97.10;;;;;;4787265;29;20494;-78
2023/06/23 11:42:10;;;;;;;17.97;13.60;;;35.70;97.10;;;;;;4781487;29;20458;-78
2023/06/23 11:44:36;;;;;;;15.23;13.63;;;35.70;96.60;;;;;;4794673;29;20426;-84
2023/06/23 11:47:02;;;;;;;15.57;13.97;;;35.80;96.90;;;;;;4795849;29;20206;-83
2023/06/23 11:49:28;;;;;;;14.63;12.50;;;35.80;96.00;;;;;;4794201;29;21014;-79
2023/06/23 11:52:02;;;;;;;16.90;13.23;;;35.80;96.10;;;;;;4772511;29;20239;-78
2023/06/23 11:54:32;;;;;;;16.50;12.87;;;35.80;96.00;;;;;;4784913;29;20614;-84
2023/06/23 11:57:00;;;;;;;20.40;12.50;;;35.80;96.10;;;;;;4737510;29;20552;-83
2023/06/23 11:59:25;;;;;;;21.87;14.33;;;35.80;95.70;;;;;;4777635;29;20486;-85
2023/06/23 12:01:52;;;;;;;16.83;14.90;;;35.90;95.80;;;;;;4782665;29;20579;-84
2023/06/23 12:04:22;;;;;;;15.60;14.10;;;35.90;95.50;;;;;;4759921;30;20196;-78
2023/06/23 12:06:51;;;;;;;19.13;12.83;;;35.90;95.60;;;;;;4765424;30;20548;-83
2023/06/23 12:09:20;;;;;;;16.10;14.30;;;35.80;95.50;;;;;;4783210;29;20937;-83
2023/06/23 12:11:46;;;;;;;15.43;13.63;;;35.80;95.70;;;;;;4752817;29;20999;-83
2023/06/23 12:14:12;;;;;;;17.33;14.00;;;35.80;95.70;;;;;;4750655;30;20428;-84
2023/06/23 12:16:38;;;;;;;15.23;13.20;;;35.80;95.30;;;;;;4752531;30;20480;-79
2023/06/23 12:19:07;;;;;;;18.60;13.67;;;35.80;95.30;;;;;;4762086;30;20756;-84
2023/06/23 12:21:39;;;;;;;17.50;14.40;;;35.90;95.00;;;;;;4754132;29;20231;-79
2023/06/23 12:24:09;;;;;;;17.60;13.10;;;35.90;94.70;;;;;;4755516;30;20434;-78
2023/06/23 12:26:42;;;;;;;13.83;12.47;;;36.00;94.40;;;;;;4773929;29;20464;-79
2023/06/23 12:29:09;;;;;;;19.10;13.30;;;35.90;94.40;;;;;;4768637;30;20436;-78
2023/06/23 12:31:37;;;;;;;20.60;14.37;;;35.90;94.60;;;;;;4772656;29;21231;-84
2023/06/23 12:34:03;;;;;;;20.67;13.27;;;36.00;94.60;;;;;;4752555;30;20466;-78
2023/06/23 12:36:29;;;;;;;14.97;13.43;;;36.00;94.60;;;;;;4772705;29;20460;-82
2023/06/23 12:38:55;;;;;;;19.57;15.33;;;36.10;94.50;;;;;;4756151;30;20440;-79
2023/06/23 12:41:27;;;;;;;16.40;13.67;;;36.10;94.60;;;;;;4757574;30;20564;-84